createdAt,value
2018-08-06T00:00:55.374Z,72.32
2018-08-06T00:03:24.011Z,71.79
2018-08-06T00:05:52.652Z,72.80
2018-08-06T00:08:21.354Z,71.66
2018-08-06T00:10:49.955Z,73.10
2018-08-06T00:13:18.574Z,72.38
2018-08-06T00:15:47.221Z,72.23
2018-08-06T00:18:15.857Z,72.37
2018-08-06T00:20:44.492Z,71.65
2018-08-06T00:23:13.139Z,71.27
2018-08-06T00:25:41.747Z,72.55
2018-08-06T00:28:10.330Z,72.49
2018-08-06T00:30:38.992Z,72.70
2018-08-06T00:33:07.614Z,71.63
2018-08-06T00:35:36.220Z,72.63
2018-08-06T00:38:04.894Z,72.75
2018-08-06T00:40:33.545Z,72.97
2018-08-06T00:43:02.171Z,73.50
2018-08-06T00:45:30.894Z,73.78
2018-08-06T00:47:59.519Z,74.01
2018-08-06T00:50:28.171Z,73.61
2018-08-06T00:52:56.805Z,74.09
2018-08-06T00:55:25.443Z,73.69
2018-08-06T00:57:54.059Z,73.68
2018-08-06T01:00:22.659Z,72.99
2018-08-06T01:02:51.315Z,73.10
2018-08-06T01:05:19.971Z,73.26
2018-08-06T01:07:48.639Z,73.05
2018-08-06T01:10:18.459Z,72.96
2018-08-06T01:12:47.227Z,72.70
2018-08-06T01:15:17.915Z,72.79
2018-08-06T01:17:46.658Z,71.86
2018-08-06T01:20:15.618Z,71.45
2018-08-06T01:22:44.900Z,72.46
2018-08-06T01:25:14.004Z,71.93
2018-08-06T01:27:42.717Z,71.75
2018-08-06T01:30:13.066Z,70.83
2018-08-06T01:32:41.679Z,72.38
2018-08-06T01:35:11.014Z,73.20
2018-08-06T01:37:39.836Z,73.23
2018-08-06T01:40:10.419Z,73.33
2018-08-06T01:42:39.398Z,73.82
2018-08-06T01:45:08.383Z,75.24
2018-08-06T01:47:37.646Z,75.62
2018-08-06T01:50:06.574Z,75.66
2018-08-06T01:52:35.399Z,74.92
2018-08-06T01:55:04.074Z,75.29
2018-08-06T01:57:32.704Z,75.07
2018-08-06T02:00:01.361Z,74.77
2018-08-06T02:02:29.928Z,74.11
2018-08-06T02:04:58.581Z,74.14
2018-08-06T02:07:27.244Z,74.65
2018-08-06T02:09:56.310Z,74.18
2018-08-06T02:12:25.003Z,73.77
2018-08-06T02:14:53.578Z,74.74
2018-08-06T02:17:22.197Z,75.65
2018-08-06T02:19:50.823Z,75.30
2018-08-06T02:22:19.551Z,74.83
2018-08-06T02:24:48.251Z,74.51
2018-08-06T02:27:16.911Z,75.42
2018-08-06T02:29:45.591Z,74.44
2018-08-06T02:32:14.232Z,74.24
2018-08-06T02:34:42.886Z,74.81
2018-08-06T02:37:11.538Z,74.24
2018-08-06T02:39:40.167Z,74.65
2018-08-06T02:42:08.827Z,75.26
2018-08-06T02:44:37.463Z,75.84
2018-08-06T02:47:06.320Z,76.08
2018-08-06T02:49:34.923Z,76.55
2018-08-06T02:52:03.656Z,78.20
2018-08-06T02:54:32.310Z,77.98
2018-08-06T02:57:01.012Z,79.04
2018-08-06T02:59:29.671Z,79.36
2018-08-06T03:01:58.358Z,79.28
2018-08-06T03:04:27.030Z,79.38
2018-08-06T03:06:55.724Z,80.19
2018-08-06T03:09:24.411Z,79.27
2018-08-06T03:11:53.076Z,80.02
2018-08-06T03:14:21.771Z,80.62
2018-08-06T03:16:50.389Z,80.10
2018-08-06T03:19:19.063Z,80.35
2018-08-06T03:21:47.746Z,79.94
2018-08-06T03:24:16.460Z,80.33
2018-08-06T03:26:45.143Z,80.27
2018-08-06T03:29:13.774Z,79.38
2018-08-06T03:31:42.434Z,79.58
2018-08-06T03:34:11.108Z,79.65
2018-08-06T03:36:39.789Z,79.44
2018-08-06T03:39:10.134Z,78.71
2018-08-06T03:41:38.935Z,78.87
2018-08-06T03:44:08.163Z,79.21
2018-08-06T03:46:37.055Z,79.43
2018-08-06T03:49:05.767Z,79.45
2018-08-06T03:51:34.454Z,78.64
2018-08-06T03:54:03.155Z,78.88
2018-08-06T03:56:31.795Z,78.33
2018-08-06T03:59:00.443Z,77.96
2018-08-06T04:01:29.070Z,78.23
2018-08-06T04:03:57.793Z,78.03
2018-08-06T04:06:26.382Z,77.55
2018-08-06T04:08:55.009Z,76.87
2018-08-06T04:11:23.635Z,77.38
2018-08-06T04:13:52.414Z,75.88
2018-08-06T04:16:21.041Z,76.97
2018-08-06T04:18:49.671Z,77.56
2018-08-06T04:21:18.365Z,78.01
2018-08-06T04:23:46.971Z,77.56
2018-08-06T04:26:15.698Z,78.46
2018-08-06T04:28:44.322Z,77.89
2018-08-06T04:31:12.902Z,76.84
2018-08-06T04:33:41.510Z,77.17
2018-08-06T04:36:10.148Z,76.61
2018-08-06T04:38:38.853Z,76.27
2018-08-06T04:41:07.483Z,76.32
2018-08-06T04:43:36.132Z,75.06
2018-08-06T04:46:05.006Z,71.75
2018-08-06T04:48:33.607Z,68.24
2018-08-06T04:51:02.276Z,66.53
2018-08-06T04:53:30.902Z,65.58
2018-08-06T04:55:59.569Z,65.57
2018-08-06T04:58:28.212Z,65.46
2018-08-06T05:00:56.868Z,66.21
2018-08-06T05:03:25.571Z,65.32
2018-08-06T05:05:54.216Z,66.25
2018-08-06T05:08:23.733Z,66.73
2018-08-06T05:10:52.355Z,67.29
2018-08-06T05:13:21.033Z,67.14
2018-08-06T05:15:49.644Z,65.82
2018-08-06T05:18:18.310Z,65.97
2018-08-06T05:20:46.988Z,65.51
2018-08-06T05:23:15.608Z,64.47
2018-08-06T05:25:44.191Z,65.13
2018-08-06T05:28:12.875Z,63.52
2018-08-06T05:30:41.534Z,62.33
2018-08-06T05:33:10.223Z,61.88
2018-08-06T05:35:38.842Z,61.69
2018-08-06T05:38:07.634Z,61.36
2018-08-06T05:40:36.294Z,60.74
2018-08-06T05:43:05.033Z,59.83
2018-08-06T05:45:33.778Z,58.31
2018-08-06T05:48:02.443Z,57.69
2018-08-06T05:50:31.154Z,57.45
2018-08-06T05:52:59.811Z,56.44
2018-08-06T05:55:28.416Z,54.50
2018-08-06T05:57:57.041Z,55.29
2018-08-06T06:00:25.711Z,56.47
2018-08-06T06:02:54.362Z,55.65
2018-08-06T06:05:23.022Z,54.75
2018-08-06T06:07:51.642Z,54.12
2018-08-06T06:10:20.236Z,54.32
2018-08-06T06:12:48.950Z,53.10
2018-08-06T06:15:17.870Z,53.22
2018-08-06T06:17:46.541Z,52.00
2018-08-06T06:20:15.138Z,50.22
2018-08-06T06:22:43.802Z,50.00
2018-08-06T06:25:13.329Z,49.52
2018-08-06T06:27:42.495Z,50.32
2018-08-06T06:30:14.834Z,48.07
2018-08-06T06:32:43.559Z,48.06
2018-08-06T06:35:12.923Z,48.10
2018-08-06T06:37:41.568Z,48.02
2018-08-06T06:40:10.250Z,47.89
2018-08-06T06:42:38.871Z,47.45
2018-08-06T06:45:08.454Z,46.73
2018-08-06T06:47:37.093Z,47.63
2018-08-06T06:50:06.292Z,47.04
2018-08-06T06:52:34.946Z,47.38
2018-08-06T06:55:03.622Z,46.94
2018-08-06T06:57:32.280Z,47.57
2018-08-06T07:00:00.977Z,47.76
2018-08-06T07:02:29.699Z,49.10
2018-08-06T07:07:32.264Z,47.51
2018-08-06T07:10:00.971Z,46.57
2018-08-06T07:12:29.613Z,46.19
2018-08-06T07:14:58.327Z,47.61
2018-08-06T07:17:27.040Z,44.77
2018-08-06T07:19:55.682Z,45.43
2018-08-06T07:22:24.469Z,45.07
2018-08-06T07:24:53.555Z,45.06
2018-08-06T07:27:22.258Z,44.23
2018-08-06T07:29:50.952Z,45.51
2018-08-06T07:32:19.651Z,46.27
2018-08-06T07:34:48.268Z,45.26
2018-08-06T07:37:16.917Z,44.81
2018-08-06T07:39:45.530Z,44.47
2018-08-06T07:42:14.276Z,44.06
2018-08-06T07:44:43.026Z,42.85
2018-08-06T07:47:11.723Z,44.34
2018-08-06T07:49:40.343Z,43.83
2018-08-06T07:52:09.083Z,43.81
2018-08-06T07:54:37.695Z,42.59
2018-08-06T07:57:06.469Z,43.18
2018-08-06T07:59:35.204Z,41.88
2018-08-06T08:02:03.914Z,41.85
2018-08-06T08:04:32.647Z,42.22
2018-08-06T08:07:01.386Z,41.33
2018-08-06T08:09:30.139Z,40.19
2018-08-06T08:11:58.921Z,41.51
2018-08-06T08:14:27.667Z,40.49
2018-08-06T08:16:56.350Z,39.99
2018-08-06T08:19:25.076Z,40.12
2018-08-06T08:21:53.734Z,40.06
2018-08-06T08:24:22.427Z,39.44
2018-08-06T08:26:51.216Z,39.20
2018-08-06T08:29:19.882Z,38.52
2018-08-06T08:31:48.546Z,37.65
2018-08-06T08:34:17.272Z,38.32
2018-08-06T08:36:45.969Z,38.31
2018-08-06T08:39:14.661Z,37.42
2018-08-06T08:41:43.291Z,36.47
2018-08-06T08:44:11.926Z,35.99
2018-08-06T08:46:40.626Z,35.77
2018-08-06T08:49:09.262Z,36.41
2018-08-06T08:51:37.949Z,35.78
2018-08-06T08:54:06.825Z,36.36
2018-08-06T08:56:35.514Z,35.75
2018-08-06T08:59:04.255Z,35.87
2018-08-06T09:01:32.946Z,36.75
2018-08-06T09:04:01.641Z,36.57
2018-08-06T09:06:30.377Z,37.45
2018-08-06T09:08:59.062Z,37.27
2018-08-06T09:11:27.690Z,35.73
2018-08-06T09:13:56.422Z,34.35
2018-08-06T09:16:25.095Z,34.15
2018-08-06T09:18:53.915Z,33.91
2018-08-06T09:21:22.615Z,34.65
2018-08-06T09:23:51.214Z,32.74
2018-08-06T09:26:19.835Z,33.18
2018-08-06T09:28:48.517Z,34.01
2018-08-06T09:31:17.169Z,33.13
2018-08-06T09:33:45.850Z,33.05
2018-08-06T09:36:14.522Z,32.70
2018-08-06T09:38:43.185Z,32.63
2018-08-06T09:41:12.148Z,30.86
2018-08-06T09:43:40.866Z,29.58
2018-08-06T09:46:09.589Z,28.93
2018-08-06T09:48:38.276Z,28.92
2018-08-06T09:51:07.014Z,28.07
2018-08-06T09:53:35.774Z,28.13
2018-08-06T09:56:04.467Z,28.52
2018-08-06T09:58:33.149Z,29.18
2018-08-06T10:01:06.986Z,28.51
2018-08-06T10:03:35.624Z,30.50
2018-08-06T10:06:04.367Z,29.94
2018-08-06T10:08:32.971Z,29.01
2018-08-06T10:11:01.703Z,30.68
2018-08-06T10:13:30.382Z,29.51
2018-08-06T10:15:59.091Z,28.43
2018-08-06T10:18:27.794Z,28.46
2018-08-06T10:20:56.419Z,27.93
2018-08-06T10:23:25.082Z,26.28
2018-08-06T10:25:53.757Z,27.24
2018-08-06T10:28:22.397Z,25.94
2018-08-06T10:30:51.039Z,26.46
2018-08-06T10:33:19.660Z,24.99
2018-08-06T10:35:48.262Z,24.64
2018-08-06T10:38:16.882Z,24.63
2018-08-06T10:40:45.498Z,25.10
2018-08-06T10:43:14.186Z,23.82
2018-08-06T10:45:42.800Z,24.40
2018-08-06T10:48:11.486Z,23.79
2018-08-06T10:50:40.185Z,24.92
2018-08-06T10:53:08.950Z,23.54
2018-08-06T10:55:37.665Z,24.04
2018-08-06T10:58:06.354Z,25.16
2018-08-06T11:00:35.009Z,23.40
2018-08-06T11:03:03.635Z,23.08
2018-08-06T11:05:32.297Z,23.95
2018-08-06T11:08:00.975Z,22.84
2018-08-06T11:10:29.646Z,21.68
2018-08-06T11:12:58.324Z,21.64
2018-08-06T11:15:27.401Z,21.43
2018-08-06T11:17:56.063Z,20.76
2018-08-06T11:20:24.958Z,20.22
2018-08-06T11:22:53.578Z,20.59
2018-08-06T11:25:22.941Z,21.61
2018-08-06T11:27:51.549Z,22.43
2018-08-06T11:30:21.433Z,23.38
2018-08-06T11:32:50.690Z,23.43
2018-08-06T11:35:19.418Z,22.58
2018-08-06T11:37:48.137Z,22.10
2018-08-06T11:40:17.401Z,21.82
2018-08-06T11:42:46.709Z,22.20
2018-08-06T11:45:19.766Z,23.61
2018-08-06T11:47:48.452Z,22.69
2018-08-06T11:50:17.169Z,21.24
2018-08-06T11:52:45.933Z,21.32
2018-08-06T11:55:14.866Z,20.07
2018-08-06T11:57:43.458Z,20.42
2018-08-06T12:00:14.998Z,20.48
2018-08-06T12:02:43.950Z,19.28
2018-08-06T12:05:12.889Z,19.39
2018-08-06T12:07:41.522Z,20.16
2018-08-06T12:10:13.021Z,20.60
2018-08-06T12:12:42.149Z,20.55
2018-08-06T12:15:11.274Z,19.23
2018-08-06T12:17:40.810Z,21.23
2018-08-06T12:20:12.380Z,21.04
2018-08-06T12:22:42.121Z,21.38
2018-08-06T12:25:11.872Z,21.03
2018-08-06T12:27:40.846Z,20.02
2018-08-06T12:30:12.016Z,20.96
2018-08-06T12:32:40.695Z,21.08
2018-08-06T12:35:09.488Z,20.91
2018-08-06T12:37:38.146Z,21.72
2018-08-06T12:40:09.301Z,20.85
2018-08-06T12:42:37.997Z,21.67
2018-08-06T12:45:07.238Z,21.26
2018-08-06T12:47:35.917Z,21.46
2018-08-06T12:50:05.032Z,21.97
2018-08-06T12:52:33.664Z,21.43
2018-08-06T12:55:02.246Z,21.68
2018-08-06T12:57:30.843Z,22.65
2018-08-06T12:59:59.445Z,23.92
2018-08-06T13:02:28.126Z,24.35
2018-08-06T13:04:56.812Z,23.48
2018-08-06T13:07:25.448Z,24.58
2018-08-06T13:09:54.030Z,24.36
2018-08-06T13:12:22.724Z,24.18
2018-08-06T13:14:51.335Z,25.65
2018-08-06T13:17:19.917Z,25.52
2018-08-06T13:19:48.561Z,24.56
2018-08-06T13:22:17.291Z,24.46
2018-08-06T13:24:45.874Z,25.10
2018-08-06T13:27:14.483Z,25.64
2018-08-06T13:29:43.093Z,27.29
2018-08-06T13:32:11.678Z,27.82
2018-08-06T13:34:40.265Z,29.33
2018-08-06T13:37:08.906Z,28.08
2018-08-06T13:39:37.690Z,27.29
2018-08-06T13:42:06.377Z,29.35
2018-08-06T13:44:34.966Z,28.81
2018-08-06T13:47:03.580Z,26.98
2018-08-06T13:49:32.199Z,27.22
2018-08-06T13:52:00.910Z,27.63
2018-08-06T13:54:29.564Z,28.88
2018-08-06T13:56:58.222Z,28.33
2018-08-06T13:59:27.016Z,28.10
2018-08-06T14:01:55.576Z,29.30
2018-08-06T14:04:24.193Z,28.50
2018-08-06T14:06:52.823Z,28.95
2018-08-06T14:09:21.497Z,28.54
2018-08-06T14:11:50.169Z,29.34
2018-08-06T14:14:18.826Z,28.92
2018-08-06T14:16:47.405Z,28.60
2018-08-06T14:19:16.023Z,30.38
2018-08-06T14:21:44.679Z,28.57
2018-08-06T14:24:13.252Z,31.28
2018-08-06T14:26:41.998Z,31.28
2018-08-06T14:29:10.659Z,33.61
2018-08-06T14:31:39.407Z,33.32
2018-08-06T14:34:08.158Z,33.44
2018-08-06T14:36:36.766Z,34.05
2018-08-06T14:39:08.843Z,33.81
2018-08-06T14:41:37.528Z,34.31
2018-08-06T14:44:07.027Z,33.82
2018-08-06T14:46:36.257Z,34.37
2018-08-06T14:49:05.065Z,34.02
2018-08-06T14:51:33.769Z,33.30
2018-08-06T14:54:02.474Z,33.80
2018-08-06T14:56:31.120Z,34.44
2018-08-06T14:58:59.813Z,34.99
2018-08-06T15:01:28.513Z,33.31
2018-08-06T15:03:57.200Z,33.53
2018-08-06T15:06:25.871Z,33.79
2018-08-06T15:08:54.657Z,34.35
2018-08-06T15:11:23.391Z,33.53
2018-08-06T15:13:51.940Z,34.23
2018-08-06T15:16:20.764Z,34.57
2018-08-06T15:18:49.448Z,34.75
2018-08-06T15:21:18.110Z,35.20
2018-08-06T15:23:46.814Z,35.36
2018-08-06T15:26:15.481Z,36.39
2018-08-06T15:28:44.433Z,36.13
2018-08-06T15:31:13.056Z,37.12
2018-08-06T15:33:41.767Z,36.59
2018-08-06T15:36:10.415Z,37.14
2018-08-06T15:38:39.095Z,37.04
2018-08-06T15:41:08.008Z,38.31
2018-08-06T15:43:36.940Z,37.57
2018-08-06T15:46:05.599Z,37.70
2018-08-06T15:48:34.286Z,37.81
2018-08-06T15:51:02.892Z,37.19
2018-08-06T15:53:31.498Z,38.06
2018-08-06T15:56:00.235Z,37.92
2018-08-06T15:58:28.892Z,38.41
2018-08-06T16:00:57.615Z,38.14
2018-08-06T16:03:26.390Z,38.74
2018-08-06T16:05:55.002Z,37.74
2018-08-06T16:08:23.684Z,37.17
2018-08-06T16:10:53.155Z,38.19
2018-08-06T16:13:21.825Z,38.38
2018-08-06T16:15:50.517Z,39.10
2018-08-06T16:18:19.127Z,39.28
2018-08-06T16:20:47.864Z,39.33
2018-08-06T16:23:16.610Z,38.87
2018-08-06T16:25:45.355Z,40.15
2018-08-06T16:28:14.077Z,40.26
2018-08-06T16:30:42.740Z,40.04
2018-08-06T16:33:11.445Z,39.73
2018-08-06T16:35:40.087Z,39.96
2018-08-06T16:38:08.897Z,40.37
2018-08-06T16:40:37.503Z,41.40
2018-08-06T16:43:06.186Z,40.67
2018-08-06T16:45:34.903Z,40.58
2018-08-06T16:48:03.624Z,41.41
2018-08-06T16:50:32.367Z,41.60
2018-08-06T16:53:01.088Z,41.31
2018-08-06T16:55:29.732Z,42.65
2018-08-06T16:57:58.419Z,42.25
2018-08-06T17:00:27.069Z,42.68
2018-08-06T17:02:55.771Z,42.38
2018-08-06T17:05:24.520Z,42.55
2018-08-06T17:07:53.262Z,42.58
2018-08-06T17:10:22.347Z,43.50
2018-08-06T17:12:52.374Z,43.18
2018-08-06T17:15:21.859Z,43.68
2018-08-06T17:17:51.668Z,43.98
2018-08-06T17:20:21.538Z,44.66
2018-08-06T17:22:51.034Z,44.73
2018-08-06T17:25:19.822Z,44.52
2018-08-06T17:27:48.536Z,44.18
2018-08-06T17:30:17.886Z,44.77
2018-08-06T17:32:46.675Z,44.84
2018-08-06T17:35:15.932Z,44.61
2018-08-06T17:37:44.676Z,45.10
2018-08-06T17:40:15.385Z,45.92
2018-08-06T17:42:44.114Z,46.34
2018-08-06T17:45:15.919Z,46.37
2018-08-06T17:47:44.692Z,46.95
2018-08-06T17:50:15.267Z,46.46
2018-08-06T17:52:44.833Z,46.55
2018-08-06T17:55:13.626Z,46.12
2018-08-06T17:57:42.369Z,46.04
2018-08-06T18:00:15.266Z,45.75
2018-08-06T18:02:43.942Z,46.31
2018-08-06T18:05:13.886Z,46.13
2018-08-06T18:07:42.871Z,46.69
2018-08-06T18:10:13.182Z,46.48
2018-08-06T18:12:42.431Z,46.95
2018-08-06T18:15:11.103Z,47.87
2018-08-06T18:17:39.882Z,48.47
2018-08-06T18:20:11.059Z,49.00
2018-08-06T18:22:39.666Z,48.87
2018-08-06T18:25:10.769Z,49.21
2018-08-06T18:27:39.560Z,48.07
2018-08-06T18:30:14.192Z,48.28
2018-08-06T18:32:42.944Z,48.39
2018-08-06T18:35:13.252Z,47.97
2018-08-06T18:37:41.963Z,48.38
2018-08-06T18:40:11.428Z,49.33
2018-08-06T18:42:40.156Z,49.04
2018-08-06T18:45:14.130Z,48.93
2018-08-06T18:47:43.644Z,48.89
2018-08-06T18:50:13.317Z,48.97
2018-08-06T18:52:42.731Z,49.28
2018-08-06T18:55:12.542Z,49.96
2018-08-06T18:57:41.545Z,51.08
2018-08-06T19:00:16.203Z,51.78
2018-08-06T19:02:45.027Z,52.96
2018-08-06T19:05:13.713Z,52.25
2018-08-06T19:07:43.032Z,53.10
2018-08-06T19:10:12.192Z,53.13
2018-08-06T19:12:52.613Z,52.82
2018-08-06T19:15:21.357Z,54.26
2018-08-06T19:17:55.230Z,53.40
2018-08-06T19:20:23.915Z,53.35
2018-08-06T19:22:52.556Z,54.13
2018-08-06T19:25:28.728Z,53.45
2018-08-06T19:27:57.402Z,53.68
2018-08-06T19:30:31.356Z,54.44
2018-08-06T19:33:00.499Z,54.88
2018-08-06T19:35:29.202Z,54.30
2018-08-06T19:37:57.809Z,54.16
2018-08-06T19:40:26.491Z,54.30
2018-08-06T19:43:00.366Z,54.04
2018-08-06T19:45:29.144Z,54.13
2018-08-06T19:48:01.435Z,54.72
2018-08-06T19:50:35.115Z,55.22
2018-08-06T19:53:03.791Z,55.12
2018-08-06T19:55:37.537Z,55.61
2018-08-06T19:58:06.424Z,56.35
2018-08-06T20:00:35.091Z,57.11
2018-08-06T20:03:03.740Z,56.36
2018-08-06T20:05:32.397Z,57.11
2018-08-06T20:08:01.139Z,57.37
2018-08-06T20:10:29.819Z,57.37
2018-08-06T20:12:58.448Z,58.38
2018-08-06T20:15:27.062Z,57.91
2018-08-06T20:17:55.986Z,58.38
2018-08-06T20:20:25.607Z,58.21
2018-08-06T20:22:55.397Z,59.08
2018-08-06T20:25:24.068Z,59.18
2018-08-06T20:27:52.835Z,59.20
2018-08-06T20:30:22.549Z,59.95
2018-08-06T20:32:51.221Z,59.18
2018-08-06T20:35:21.229Z,60.62
2018-08-06T20:37:49.874Z,60.16
2018-08-06T20:40:20.289Z,60.13
2018-08-06T20:42:49.062Z,60.08
2018-08-06T20:45:19.313Z,61.27
2018-08-06T20:47:48.169Z,61.57
2018-08-06T20:50:18.648Z,62.42
2018-08-06T20:52:48.305Z,62.38
2018-08-06T20:55:16.974Z,62.55
2018-08-06T20:57:45.879Z,63.83
2018-08-06T21:00:19.300Z,63.19
2018-08-06T21:02:48.599Z,64.04
2018-08-06T21:05:17.674Z,64.51
2018-08-06T21:07:46.343Z,63.92
2018-08-06T21:10:15.836Z,64.87
2018-08-06T21:12:44.607Z,64.96
2018-08-06T21:15:14.127Z,64.05
2018-08-06T21:17:42.949Z,65.30
2018-08-06T21:20:13.679Z,64.53
2018-08-06T21:22:43.458Z,64.81
2018-08-06T21:25:12.566Z,65.11
2018-08-06T21:27:42.247Z,64.96
2018-08-06T21:30:14.841Z,64.81
2018-08-06T21:32:47.257Z,65.33
2018-08-06T21:35:16.449Z,66.06
2018-08-06T21:37:45.373Z,64.59
2018-08-06T21:40:14.011Z,65.26
2018-08-06T21:42:42.649Z,65.96
2018-08-06T21:45:11.374Z,65.58
2018-08-06T21:47:40.011Z,66.29
2018-08-06T21:50:09.417Z,65.82
2018-08-06T21:52:38.080Z,65.49
2018-08-06T21:55:07.402Z,66.58
2018-08-06T21:57:36.058Z,65.94
2018-08-06T22:00:09.608Z,67.06
2018-08-06T22:02:38.223Z,66.75
2018-08-06T22:05:07.930Z,66.04
2018-08-06T22:07:36.592Z,67.49
2018-08-06T22:10:05.624Z,66.81
2018-08-06T22:12:34.274Z,67.08
2018-08-06T22:15:02.904Z,66.69
2018-08-06T22:17:31.563Z,67.73
2018-08-06T22:20:00.168Z,67.53
2018-08-06T22:22:28.764Z,67.78
2018-08-06T22:24:57.407Z,68.44
2018-08-06T22:27:26.061Z,67.91
2018-08-06T22:29:54.734Z,68.42
2018-08-06T22:32:23.325Z,67.92
2018-08-06T22:34:51.922Z,67.82
2018-08-06T22:37:20.642Z,68.12
2018-08-06T22:39:49.339Z,69.15
2018-08-06T22:42:18.039Z,69.31
2018-08-06T22:44:46.699Z,69.21
2018-08-06T22:47:15.334Z,69.90
2018-08-06T22:49:43.952Z,69.62
2018-08-06T22:52:12.598Z,68.97
2018-08-06T22:54:41.343Z,69.06
2018-08-06T22:57:10.028Z,68.64
2018-08-06T22:59:38.794Z,69.40
2018-08-06T23:02:07.544Z,69.12
2018-08-06T23:04:36.215Z,69.24
2018-08-06T23:07:04.943Z,68.98
2018-08-06T23:09:33.608Z,69.06
2018-08-06T23:12:02.312Z,69.79
2018-08-06T23:14:30.954Z,69.49
2018-08-06T23:16:59.660Z,69.34
2018-08-06T23:19:28.298Z,68.80
2018-08-06T23:21:57.120Z,67.46
2018-08-06T23:24:25.747Z,69.76
2018-08-06T23:26:54.444Z,68.59
2018-08-06T23:29:23.168Z,69.04
2018-08-06T23:31:51.918Z,69.48
2018-08-06T23:34:20.573Z,68.54
2018-08-06T23:36:49.202Z,70.01
2018-08-06T23:39:17.868Z,68.93
2018-08-06T23:41:46.546Z,69.23
2018-08-06T23:44:15.204Z,69.20
2018-08-06T23:46:43.877Z,68.69
2018-08-06T23:49:12.540Z,69.33
2018-08-06T23:51:41.183Z,69.74
2018-08-06T23:54:10.046Z,70.85
2018-08-06T23:56:38.714Z,70.00
2018-08-06T23:59:07.386Z,72.58
